Time;durP1;ratioP1;P1;durP2;ratioP2;P2;SDS_P1;SDS_P2;PMS_P1;PMS_P2;Temp;Humidity;BMP_temperature;BMP_pressure;BME280_temperature;BME280_humidity;BME280_pressure;Samples;Min_cycle;Max_cycle;Signal;HPM_P1;HPM_P2
2023/03/30 00:01:19;;;;;;;4.32;1.50;;;;;;;12.55;99.30;100485.06;5068778;28;20014;-70
2023/03/30 00:03:46;;;;;;;5.70;2.08;;;;;;;12.63;98.32;100471.34;5068120;28;20024;-70
2023/03/30 00:06:19;;;;;;;5.45;2.13;;;;;;;12.68;97.43;100465.34;5073800;28;20051;-70
2023/03/30 00:08:45;;;;;;;4.22;2.03;;;;;;;12.68;97.89;100467.94;5063374;28;20031;-70
2023/03/30 00:11:12;;;;;;;4.03;1.73;;;;;;;12.68;97.25;100457.53;5068518;28;20107;-70
2023/03/30 00:13:38;;;;;;;2.70;1.58;;;;;;;12.66;98.03;100454.06;5080966;28;20028;-70
2023/03/30 00:16:07;;;;;;;2.88;1.55;;;;;;;12.64;97.84;100453.16;5068572;28;20039;-70
2023/03/30 00:18:36;;;;;;;3.80;1.70;;;;;;;12.62;97.27;100436.66;5081635;28;20021;-70
2023/03/30 00:21:02;;;;;;;2.22;1.33;;;;;;;12.59;97.61;100441.81;5078688;28;20448;-70
2023/03/30 00:23:28;;;;;;;3.00;1.42;;;;;;;12.55;97.34;100445.19;5086681;28;20073;-70
2023/03/30 00:25:54;;;;;;;2.80;2.03;;;;;;;12.52;97.31;100443.41;5055675;28;20480;-70
2023/03/30 00:28:20;;;;;;;2.65;1.85;;;;;;;12.52;97.54;100437.34;5067905;28;20421;-70
2023/03/30 00:30:46;;;;;;;2.83;1.35;;;;;;;12.52;97.19;100432.16;5068112;28;20055;-70
2023/03/30 00:33:12;;;;;;;3.80;1.40;;;;;;;12.53;97.40;100431.28;5067657;28;20067;-70
2023/03/30 00:35:37;;;;;;;4.03;2.10;;;;;;;12.52;96.20;100434.75;5059742;28;20064;-70
2023/03/30 00:38:03;;;;;;;3.20;1.45;;;;;;;12.49;97.07;100432.97;5048861;28;20033;-70
2023/03/30 00:40:30;;;;;;;2.92;1.45;;;;;;;12.47;96.95;100427.75;5067757;28;20028;-70
2023/03/30 00:43:00;;;;;;;1.70;1.30;;;;;;;12.47;96.58;100425.13;5056387;28;20056;-70
2023/03/30 00:45:32;;;;;;;2.63;1.33;;;;;;;12.45;96.87;100413.84;5078878;28;20104;-70
2023/03/30 00:48:04;;;;;;;4.97;1.50;;;;;;;12.44;96.84;100416.41;5057538;28;20095;-70
2023/03/30 00:50:34;;;;;;;2.78;1.38;;;;;;;12.40;97.24;100412.00;5076733;28;20405;-70
2023/03/30 00:53:05;;;;;;;4.78;1.38;;;;;;;12.38;97.19;100396.38;5067619;28;20041;-70
2023/03/30 00:55:33;;;;;;;2.05;1.38;;;;;;;12.39;96.92;100397.28;5067715;28;20116;-70
2023/03/30 00:57:59;;;;;;;2.83;1.55;;;;;;;12.40;96.72;100394.69;5067960;28;20780;-70
2023/03/30 01:00:24;;;;;;;4.80;1.98;;;;;;;12.38;97.80;100378.19;5082044;28;20365;-70
2023/03/30 01:02:55;;;;;;;2.95;1.75;;;;;;;12.38;97.81;100379.94;5067648;28;20113;-70
2023/03/30 01:05:23;;;;;;;4.22;1.73;;;;;;;12.36;97.98;100387.69;5081146;28;20441;-70
2023/03/30 01:07:49;;;;;;;2.65;1.83;;;;;;;12.38;98.31;100383.41;5068202;28;20024;-70
2023/03/30 01:10:15;;;;;;;2.60;1.60;;;;;;;12.41;98.28;100377.41;5082672;28;20127;-71
2023/03/30 01:12:40;;;;;;;2.88;1.50;;;;;;;12.41;98.02;100378.25;5087914;28;20103;-70
2023/03/30 01:15:07;;;;;;;3.40;1.55;;;;;;;12.41;98.24;100370.44;5072677;28;20428;-70
2023/03/30 01:18:23;;;;;;;4.35;1.70;;;;;;;12.42;98.37;100372.22;5075801;28;20024;-70
2023/03/30 01:21:04;;;;;;;3.65;1.20;;;;;;;12.40;98.29;100384.31;5025184;28;20107;-70
2023/03/30 01:24:03;;;;;;;4.90;1.48;;;;;;;12.40;98.89;100384.31;5037607;28;20025;-70
2023/03/30 01:27:08;;;;;;;2.85;1.40;;;;;;;12.35;99.41;100392.03;5070420;28;20125;-70
2023/03/30 01:29:57;;;;;;;5.60;2.20;;;;;;;12.30;99.59;100380.69;5061642;28;20063;-70
2023/03/30 01:32:43;;;;;;;3.85;1.35;;;;;;;12.26;100.00;100386.66;5075344;28;20028;-70
2023/03/30 01:35:47;;;;;;;3.92;1.50;;;;;;;12.27;100.00;100379.75;5083909;28;20048;-70
2023/03/30 01:38:34;;;;;;;3.72;1.80;;;;;;;12.28;100.00;100386.69;5069384;28;20506;-70
2023/03/30 01:41:08;;;;;;;4.50;1.88;;;;;;;12.40;99.44;100376.50;5087743;28;20024;-71
2023/03/30 01:43:33;;;;;;;3.15;1.30;;;;;;;12.49;98.65;100374.06;5081836;28;20387;-70
2023/03/30 01:46:07;;;;;;;3.65;1.67;;;;;;;12.53;98.39;100368.91;5080662;28;20035;-70
2023/03/30 01:48:44;;;;;;;2.92;1.10;;;;;;;12.57;98.10;100360.34;5087395;28;20039;-70
2023/03/30 01:51:22;;;;;;;2.45;1.42;;;;;;;12.62;97.30;100369.06;5087150;28;20059;-70
2023/03/30 01:53:55;;;;;;;1.38;1.02;;;;;;;12.61;97.65;100360.38;5074559;28;20044;-70
2023/03/30 01:56:35;;;;;;;2.13;0.98;;;;;;;12.64;97.13;100363.91;5066305;28;20086;-70
2023/03/30 01:59:15;;;;;;;4.95;1.63;;;;;;;12.64;97.51;100375.19;5066889;28;20028;-70
2023/03/30 02:01:48;;;;;;;4.95;1.23;;;;;;;12.65;97.03;100384.72;5067497;28;20032;-70
2023/03/30 02:04:16;;;;;;;3.88;1.20;;;;;;;12.64;97.23;100382.97;5070566;28;20024;-70
2023/03/30 02:07:10;;;;;;;3.28;1.35;;;;;;;12.65;96.74;100376.03;5071286;28;20032;-70
2023/03/30 02:09:38;;;;;;;3.95;1.30;;;;;;;12.65;96.59;100382.09;5056979;28;20048;-70
2023/03/30 02:12:04;;;;;;;4.22;1.42;;;;;;;12.68;96.24;100387.34;5056895;28;20070;-70
2023/03/30 02:14:32;;;;;;;3.42;1.10;;;;;;;12.72;96.12;100383.97;5070912;28;20028;-70
2023/03/30 02:17:03;;;;;;;2.72;1.20;;;;;;;12.68;96.38;100387.34;5053654;28;20028;-70
2023/03/30 02:19:29;;;;;;;2.10;1.20;;;;;;;12.64;96.81;100382.97;5051021;28;20044;-70
2023/03/30 02:21:55;;;;;;;4.53;1.50;;;;;;;12.63;97.45;100376.00;5065130;28;20024;-70
2023/03/30 02:24:24;;;;;;;4.95;1.73;;;;;;;12.60;97.52;100370.78;5075724;28;20021;-71
2023/03/30 02:26:51;;;;;;;3.22;1.30;;;;;;;12.57;98.23;100370.72;5078458;28;20024;-70
2023/03/30 02:29:17;;;;;;;2.83;1.30;;;;;;;12.54;98.31;100368.09;5062268;28;20024;-70
2023/03/30 02:31:45;;;;;;;3.30;1.15;;;;;;;12.51;98.53;100371.50;5065258;28;20056;-70
2023/03/30 02:34:11;;;;;;;2.17;1.40;;;;;;;12.49;99.06;100373.19;5061827;28;20617;-70
2023/03/30 02:37:00;;;;;;;4.72;1.55;;;;;;;12.45;99.06;100373.97;5050664;28;20115;-70
2023/03/30 02:39:45;;;;;;;3.65;1.50;;;;;;;12.48;98.70;100372.31;5049840;28;20086;-70
2023/03/30 02:42:32;;;;;;;5.82;1.33;;;;;;;12.52;98.41;100370.63;5050369;28;20487;-70
2023/03/30 02:45:18;;;;;;;6.15;1.25;;;;;;;12.58;97.53;100369.88;5068052;28;20021;-70
2023/03/30 02:48:11;;;;;;;2.65;1.40;;;;;;;12.58;97.58;100372.47;5069890;28;20062;-70
2023/03/30 02:50:47;;;;;;;3.30;1.63;;;;;;;12.63;97.56;100370.81;5069831;28;20024;-70
2023/03/30 02:53:31;;;;;;;4.10;1.33;;;;;;;12.66;97.14;100368.28;5064118;28;20080;-70
2023/03/30 02:56:10;;;;;;;2.30;1.30;;;;;;;12.66;96.89;100370.88;5089568;28;20115;-70
2023/03/30 02:58:44;;;;;;;4.28;1.35;;;;;;;12.67;97.37;100371.72;5100747;28;20028;-71
2023/03/30 03:01:18;;;;;;;5.15;1.80;;;;;;;12.65;98.00;100373.44;5103397;28;20019;-70
2023/03/30 03:03:46;;;;;;;3.78;1.30;;;;;;;12.64;97.77;100367.38;5089770;28;20472;-70
2023/03/30 03:06:14;;;;;;;2.30;1.10;;;;;;;12.66;97.21;100357.88;5089972;28;20016;-70
2023/03/30 03:08:42;;;;;;;5.40;1.23;;;;;;;12.70;96.90;100351.84;5088987;28;20023;-70
2023/03/30 03:11:08;;;;;;;3.05;1.23;;;;;;;12.68;97.52;100348.34;5089068;28;20028;-70
2023/03/30 03:13:37;;;;;;;5.15;1.50;;;;;;;12.71;96.81;100345.81;5088243;28;20030;-70
2023/03/30 03:16:04;;;;;;;4.95;1.30;;;;;;;12.71;97.24;100357.94;5098358;28;20433;-70
2023/03/30 03:18:30;;;;;;;3.58;1.25;;;;;;;12.70;97.65;100362.25;5092547;28;20023;-70
2023/03/30 03:20:56;;;;;;;2.53;1.38;;;;;;;12.70;97.01;100359.66;5089053;28;20016;-70
2023/03/30 03:23:21;;;;;;;3.53;1.02;;;;;;;12.70;96.74;100362.25;5102431;28;20027;-70
2023/03/30 03:25:47;;;;;;;2.63;1.42;;;;;;;12.71;97.04;100353.63;5082339;28;20103;-70
2023/03/30 03:28:12;;;;;;;3.80;1.25;;;;;;;12.72;97.23;100352.75;5096709;28;20461;-70
2023/03/30 03:30:38;;;;;;;6.20;1.50;;;;;;;12.68;98.49;100350.97;5089117;28;20047;-70
2023/03/30 03:33:03;;;;;;;4.60;1.35;;;;;;;12.67;97.91;100357.03;5089275;28;20085;-70
2023/03/30 03:35:28;;;;;;;5.90;1.80;;;;;;;12.68;97.71;100348.34;5088462;28;20642;-70
2023/03/30 03:37:54;;;;;;;4.15;1.52;;;;;;;12.68;97.04;100355.31;5089228;28;20462;-70
2023/03/30 03:40:19;;;;;;;4.22;1.70;;;;;;;12.67;97.32;100348.34;5089130;28;20384;-70
2023/03/30 03:42:45;;;;;;;4.93;1.52;;;;;;;12.67;96.42;100345.75;5075656;28;20028;-70
2023/03/30 03:45:10;;;;;;;2.92;1.40;;;;;;;12.69;96.76;100339.72;5068880;28;20460;-70
2023/03/30 03:47:35;;;;;;;7.30;1.35;;;;;;;12.68;96.81;100337.97;5082431;28;20020;-71
2023/03/30 03:50:05;;;;;;;2.75;1.10;;;;;;;12.69;96.10;100333.66;5088877;28;20034;-70
2023/03/30 03:52:31;;;;;;;2.13;1.02;;;;;;;12.70;96.26;100344.06;5081642;28;20044;-70
2023/03/30 03:54:56;;;;;;;3.80;1.35;;;;;;;12.73;95.14;100331.13;5088891;28;20383;-70
2023/03/30 03:57:22;;;;;;;4.90;1.70;;;;;;;12.78;94.63;100333.78;5101267;28;20073;-70
2023/03/30 03:59:48;;;;;;;3.20;1.60;;;;;;;12.78;94.61;100327.72;5088970;28;20055;-70
2023/03/30 04:02:13;;;;;;;2.72;1.10;;;;;;;12.79;93.56;100329.47;5088409;28;20519;-71
2023/03/30 04:04:39;;;;;;;1.70;1.00;;;;;;;12.78;93.87;100328.59;5089050;28;20028;-70
2023/03/30 04:07:05;;;;;;;1.90;1.08;;;;;;;12.77;93.95;100328.56;5101270;28;20027;-70
2023/03/30 04:09:30;;;;;;;5.50;1.40;;;;;;;12.74;94.69;100337.19;5081039;28;20028;-70
2023/03/30 04:11:55;;;;;;;4.68;1.20;;;;;;;12.77;93.81;100323.38;5084046;28;20051;-70
2023/03/30 04:14:20;;;;;;;1.88;0.77;;;;;;;12.77;93.54;100318.16;5086815;28;20020;-70
2023/03/30 04:16:47;;;;;;;5.47;1.83;;;;;;;12.77;94.02;100321.63;5081529;28;20571;-70
2023/03/30 04:19:14;;;;;;;4.43;1.20;;;;;;;12.72;95.03;100323.28;5079641;28;20460;-70
2023/03/30 04:21:40;;;;;;;2.97;1.20;;;;;;;12.68;95.41;100330.16;5082303;28;20039;-70
2023/03/30 04:24:07;;;;;;;5.30;1.30;;;;;;;12.64;96.07;100314.50;5096167;28;20032;-70
2023/03/30 04:26:32;;;;;;;3.05;1.20;;;;;;;12.58;96.48;100308.38;5093387;28;20023;-70
2023/03/30 04:28:59;;;;;;;5.15;1.60;;;;;;;12.55;96.47;100312.66;5075111;28;20038;-70
2023/03/30 04:31:24;;;;;;;3.63;1.17;;;;;;;12.50;97.91;100304.78;5088401;28;20471;-70
2023/03/30 04:33:51;;;;;;;3.40;1.25;;;;;;;12.45;98.58;100317.69;5087554;28;20055;-70
2023/03/30 04:36:18;;;;;;;4.93;1.45;;;;;;;12.40;98.77;100311.56;5088337;28;20020;-70
2023/03/30 04:39:05;;;;;;;5.22;1.45;;;;;;;12.39;99.06;100309.81;5087640;28;20032;-70
2023/03/30 04:41:32;;;;;;;3.33;0.98;;;;;;;12.33;99.38;100301.91;5084744;28;20024;-70
2023/03/30 04:44:02;;;;;;;2.67;1.10;;;;;;;12.30;99.27;100299.28;5088830;28;20028;-70
2023/03/30 04:46:28;;;;;;;4.00;1.27;;;;;;;12.27;98.89;100294.88;5079627;28;20086;-70
2023/03/30 04:48:53;;;;;;;2.70;1.38;;;;;;;12.24;99.19;100295.72;5079746;28;20044;-70
2023/03/30 04:51:18;;;;;;;4.30;1.50;;;;;;;12.21;99.66;100293.09;5074380;28;20024;-70
2023/03/30 04:53:44;;;;;;;2.92;1.10;;;;;;;12.18;99.28;100295.59;5072942;28;20075;-70
2023/03/30 04:56:10;;;;;;;3.58;1.20;;;;;;;12.22;99.21;100296.53;5078362;28;20401;-70
2023/03/30 04:58:36;;;;;;;3.85;1.17;;;;;;;12.20;98.86;100293.91;5081321;28;20034;-70
2023/03/30 05:01:02;;;;;;;2.40;1.23;;;;;;;12.19;99.69;100297.38;5082883;28;20236;-70
2023/03/30 05:03:28;;;;;;;4.50;1.48;;;;;;;12.19;99.23;100304.28;5072596;28;20035;-70
2023/03/30 05:05:53;;;;;;;2.65;1.40;;;;;;;12.18;100.00;100299.94;5080693;28;20488;-70
2023/03/30 05:08:19;;;;;;;2.65;1.20;;;;;;;12.15;100.00;100302.47;5083438;28;20052;-70
2023/03/30 05:10:44;;;;;;;3.10;1.13;;;;;;;12.14;100.00;100301.63;5086588;28;20032;-70
2023/03/30 05:13:09;;;;;;;4.95;1.25;;;;;;;12.12;100.00;100316.28;5086613;28;20107;-70
2023/03/30 05:15:35;;;;;;;4.07;1.15;;;;;;;12.08;100.00;100346.50;5077893;28;20032;-70
2023/03/30 05:18:00;;;;;;;2.35;0.95;;;;;;;12.05;100.00;100345.56;5100340;28;20400;-70
2023/03/30 05:20:25;;;;;;;3.60;1.50;;;;;;;11.98;100.00;100352.38;5096247;28;20460;-70
2023/03/30 05:22:52;;;;;;;3.45;1.88;;;;;;;11.91;100.00;100348.78;5092662;28;20074;-70
2023/03/30 05:25:18;;;;;;;3.03;1.88;;;;;;;11.83;100.00;100356.44;5080749;28;20035;-70
2023/03/30 05:27:43;;;;;;;5.03;2.13;;;;;;;11.74;100.00;100349.34;5074173;28;20041;-70
2023/03/30 05:30:09;;;;;;;3.90;1.80;;;;;;;11.69;100.00;100358.78;5075028;28;20467;-71
2023/03/30 05:32:34;;;;;;;7.18;2.15;;;;;;;11.63;100.00;100350.84;5073764;28;20020;-70
2023/03/30 05:35:00;;;;;;;3.17;2.10;;;;;;;11.57;100.00;100363.69;5082115;28;20114;-70
2023/03/30 05:37:25;;;;;;;5.25;2.25;;;;;;;11.53;100.00;100365.38;5078896;28;20444;-70
2023/03/30 05:39:50;;;;;;;8.75;2.30;;;;;;;11.49;100.00;100367.03;5088179;28;20084;-70
2023/03/30 05:42:16;;;;;;;3.67;2.13;;;;;;;11.44;100.00;100368.63;5080047;28;20440;-70
2023/03/30 05:44:41;;;;;;;7.10;2.50;;;;;;;11.40;100.00;100375.47;5077570;28;20036;-70
2023/03/30 05:47:06;;;;;;;5.00;2.00;;;;;;;11.36;100.00;100365.88;5078623;28;20012;-70
2023/03/30 05:49:32;;;;;;;5.75;2.20;;;;;;;11.33;100.00;100378.81;5075866;28;20031;-70
2023/03/30 05:51:57;;;;;;;6.90;2.55;;;;;;;11.27;100.00;100376.06;5075708;28;20036;-70
2023/03/30 05:54:22;;;;;;;7.18;2.67;;;;;;;11.22;100.00;100363.00;5077295;28;20044;-70
2023/03/30 05:56:48;;;;;;;4.18;2.08;;;;;;;11.16;100.00;100368.94;5077360;28;20091;-69
2023/03/30 05:59:13;;;;;;;4.32;2.00;;;;;;;11.13;100.00;100355.00;5089060;28;20051;-69
2023/03/30 06:01:39;;;;;;;4.80;2.08;;;;;;;11.09;100.00;100360.97;5081414;28;20362;-68
2023/03/30 06:04:04;;;;;;;8.02;2.65;;;;;;;11.04;100.00;100369.50;5079717;28;20024;-69
2023/03/30 06:06:30;;;;;;;5.93;2.00;;;;;;;10.98;100.00;100387.53;5082938;28;20016;-68
2023/03/30 06:08:56;;;;;;;8.32;2.35;;;;;;;10.95;100.00;100387.47;5087524;28;20046;-68
2023/03/30 06:11:21;;;;;;;5.20;2.50;;;;;;;10.89;100.00;100389.91;5071634;28;20381;-68
2023/03/30 06:13:47;;;;;;;7.05;2.50;;;;;;;10.79;100.00;100386.22;5075186;28;20233;-68
2023/03/30 06:16:12;;;;;;;8.88;3.47;;;;;;;10.78;100.00;100387.94;5080811;28;20025;-68
2023/03/30 06:18:38;;;;;;;7.13;3.00;;;;;;;10.73;100.00;100388.66;5073806;28;20518;-68
2023/03/30 06:21:07;;;;;;;5.85;2.50;;;;;;;10.69;100.00;100387.72;5079481;28;20031;-67
2023/03/30 06:23:34;;;;;;;7.43;2.40;;;;;;;10.66;100.00;100379.88;5100166;28;20047;-68
2023/03/30 06:26:00;;;;;;;6.50;2.33;;;;;;;10.65;100.00;100380.72;5089278;28;20069;-68
2023/03/30 06:28:26;;;;;;;6.40;2.20;;;;;;;10.68;100.00;100391.16;5074362;28;20034;-68
2023/03/30 06:30:52;;;;;;;8.70;2.97;;;;;;;10.63;100.00;100397.94;5068490;28;20484;-68
2023/03/30 06:33:18;;;;;;;5.28;2.55;;;;;;;10.63;100.00;100408.31;5069681;28;20031;-68
2023/03/30 06:35:46;;;;;;;7.80;2.65;;;;;;;10.60;100.00;100408.19;5068882;28;20025;-67
2023/03/30 06:38:12;;;;;;;7.93;2.75;;;;;;;10.61;100.00;100402.19;5069633;28;20849;-68
2023/03/30 06:40:37;;;;;;;5.40;2.00;;;;;;;10.62;100.00;100398.75;5071283;28;20028;-67
2023/03/30 06:43:03;;;;;;;8.48;2.97;;;;;;;10.57;100.00;100409.03;5072926;28;20035;-68
2023/03/30 06:45:28;;;;;;;8.85;2.55;;;;;;;10.55;100.00;100406.41;5090663;28;20020;-68
2023/03/30 06:47:53;;;;;;;9.45;2.88;;;;;;;10.52;100.00;100406.28;5089624;28;20402;-67
2023/03/30 06:50:19;;;;;;;6.07;3.53;;;;;;;10.52;100.00;100411.47;5099546;28;20011;-67
2023/03/30 06:52:44;;;;;;;7.95;3.15;;;;;;;10.57;100.00;100411.63;5090877;28;20405;-67
2023/03/30 06:55:10;;;;;;;6.50;2.75;;;;;;;10.64;100.00;100407.44;5079883;28;20028;-67
2023/03/30 06:57:35;;;;;;;8.57;2.97;;;;;;;10.83;100.00;100400.13;5089881;28;20094;-68
2023/03/30 07:00:00;;;;;;;5.93;2.50;;;;;;;11.32;100.00;100399.50;5062656;28;20028;-68
2023/03/30 07:02:26;;;;;;;9.80;2.72;;;;;;;12.00;100.00;100411.28;5100282;28;20034;-68
2023/03/30 07:04:51;;;;;;;4.85;1.65;;;;;;;12.61;100.00;100414.09;5080382;28;20024;-67
2023/03/30 07:07:16;;;;;;;7.57;2.42;;;;;;;13.10;100.00;100407.91;5070063;28;20028;-67
2023/03/30 07:09:42;;;;;;;5.70;1.80;;;;;;;13.51;100.00;100408.50;5070088;28;20028;-68
2023/03/30 07:12:07;;;;;;;5.32;1.73;;;;;;;13.83;100.00;100415.88;5068773;28;20388;-68
2023/03/30 07:14:32;;;;;;;4.70;1.90;;;;;;;14.06;100.00;100420.44;5080756;28;20024;-68
2023/03/30 07:16:58;;;;;;;7.97;1.73;;;;;;;13.74;100.00;100418.34;5072221;28;20013;-67
2023/03/30 07:19:23;;;;;;;6.47;1.92;;;;;;;13.96;100.00;100416.00;5080207;28;20031;-67
2023/03/30 07:21:48;;;;;;;5.90;1.55;;;;;;;14.21;100.00;100418.88;5075495;28;20026;-67
2023/03/30 07:24:14;;;;;;;6.22;1.48;;;;;;;14.39;100.00;100410.34;5069571;28;20012;-67
2023/03/30 07:26:39;;;;;;;5.90;2.17;;;;;;;14.53;100.00;100420.91;5069259;28;20559;-68
2023/03/30 07:29:05;;;;;;;4.22;1.48;;;;;;;14.79;100.00;100420.22;5076268;28;20046;-67
2023/03/30 07:31:30;;;;;;;4.80;1.70;;;;;;;15.01;100.00;100428.25;5089760;28;20035;-68
2023/03/30 07:33:56;;;;;;;7.95;1.88;;;;;;;15.45;100.00;100425.94;5102797;28;20506;-68
2023/03/30 07:36:21;;;;;;;9.20;2.08;;;;;;;15.32;100.00;100423.25;5088993;28;20020;-68
2023/03/30 07:38:47;;;;;;;4.70;1.52;;;;;;;15.12;100.00;100429.22;5076432;28;20444;-68
2023/03/30 07:41:14;;;;;;;8.20;2.13;;;;;;;14.64;100.00;100416.63;5101638;28;20024;-67
2023/03/30 07:43:39;;;;;;;4.95;1.77;;;;;;;14.29;100.00;100425.00;5075869;28;20388;-67
2023/03/30 07:46:06;;;;;;;12.30;2.08;;;;;;;13.95;100.00;100440.28;5075632;28;20481;-68
2023/03/30 07:48:31;;;;;;;5.88;1.63;;;;;;;13.74;100.00;100441.78;5081424;28;20058;-68
2023/03/30 07:51:02;;;;;;;7.75;2.40;;;;;;;13.42;100.00;100441.31;5068977;28;20511;-67
2023/03/30 07:53:28;;;;;;;5.50;1.65;;;;;;;13.32;100.00;100448.16;5068739;28;20405;-68
2023/03/30 07:55:54;;;;;;;7.75;2.20;;;;;;;13.25;100.00;100453.22;5067964;28;20040;-67
2023/03/30 07:58:19;;;;;;;6.93;2.22;;;;;;;13.07;100.00;100449.50;5075269;28;20028;-68
2023/03/30 08:00:46;;;;;;;7.43;1.75;;;;;;;12.93;100.00;100457.94;5071355;28;20054;-68
2023/03/30 08:03:12;;;;;;;7.75;2.00;;;;;;;12.92;100.00;100455.31;5078236;28;20035;-68
2023/03/30 08:05:37;;;;;;;9.02;1.92;;;;;;;12.93;100.00;100457.94;5082921;28;20020;-67
2023/03/30 08:08:02;;;;;;;12.57;2.78;;;;;;;12.92;100.00;100466.59;5083157;28;20519;-68
2023/03/30 08:10:28;;;;;;;5.78;1.80;;;;;;;12.91;100.00;100470.06;5072038;28;20023;-68
2023/03/30 08:12:53;;;;;;;8.85;2.00;;;;;;;12.96;100.00;100472.75;5088599;28;20027;-68
2023/03/30 08:15:18;;;;;;;8.77;2.83;;;;;;;12.90;100.00;100457.91;5074642;28;20020;-68
2023/03/30 08:17:44;;;;;;;9.05;2.38;;;;;;;12.86;100.00;100471.72;5084607;28;20039;-67
2023/03/30 08:20:10;;;;;;;7.00;2.28;;;;;;;12.88;100.00;100470.00;5078500;28;20111;-68
2023/03/30 08:22:35;;;;;;;10.52;2.28;;;;;;;12.90;100.00;100486.50;5092503;28;20024;-68
2023/03/30 08:25:01;;;;;;;7.57;1.92;;;;;;;12.91;100.00;100479.59;5077851;28;20533;-68
2023/03/30 08:27:26;;;;;;;6.82;2.05;;;;;;;12.90;100.00;100483.91;5080923;28;20525;-68
2023/03/30 08:29:53;;;;;;;10.80;2.35;;;;;;;12.85;100.00;100490.75;5079210;28;20485;-68
2023/03/30 08:32:18;;;;;;;10.80;2.40;;;;;;;12.79;100.00;100480.28;5076532;28;20027;-68
2023/03/30 08:34:43;;;;;;;9.95;2.40;;;;;;;12.74;100.00;100482.78;5073032;28;20109;-68
2023/03/30 08:37:09;;;;;;;8.18;2.20;;;;;;;12.70;100.00;100483.59;5074209;28;20133;-68
2023/03/30 08:39:35;;;;;;;9.50;2.42;;;;;;;12.73;100.00;100481.91;5085009;28;20085;-68
2023/03/30 08:42:35;;;;;;;12.10;2.75;;;;;;;12.76;100.00;100488.88;5075673;28;20043;-68
2023/03/30 08:45:04;;;;;;;9.30;2.35;;;;;;;12.90;100.00;100472.66;5081979;28;20028;-68
2023/03/30 08:47:37;;;;;;;11.23;2.58;;;;;;;13.32;100.00;100475.88;5079732;28;20170;-68
2023/03/30 08:50:12;;;;;;;11.68;2.70;;;;;;;13.76;100.00;100484.34;5068236;28;20039;-68
2023/03/30 08:52:40;;;;;;;8.80;2.45;;;;;;;14.25;100.00;100486.66;5078987;28;20280;-68
2023/03/30 08:55:20;;;;;;;8.93;2.58;;;;;;;14.56;100.00;100480.88;5067888;28;20024;-68
2023/03/30 08:57:57;;;;;;;10.00;2.47;;;;;;;14.95;100.00;100480.41;5073512;28;20472;-68
2023/03/30 09:00:32;;;;;;;7.53;2.60;;;;;;;15.13;94.57;100480.53;5076720;28;20035;-68
2023/03/30 09:03:09;;;;;;;9.55;2.55;;;;;;;15.10;90.57;100483.13;5069294;28;20484;-67
2023/03/30 09:05:42;;;;;;;8.23;2.58;;;;;;;15.12;89.67;100480.53;5074065;28;20024;-68
2023/03/30 09:08:23;;;;;;;10.45;2.63;;;;;;;15.20;91.57;100478.84;5073757;28;20111;-68
2023/03/30 09:10:55;;;;;;;11.35;2.75;;;;;;;15.23;89.24;100484.09;5074138;28;20031;-68
2023/03/30 09:13:24;;;;;;;9.45;2.55;;;;;;;14.96;88.07;100482.13;5077977;28;20916;-68
2023/03/30 09:16:01;;;;;;;10.15;3.05;;;;;;;14.84;89.34;100494.22;5063926;28;20502;-68
2023/03/30 09:18:31;;;;;;;9.55;2.50;;;;;;;14.70;89.98;100503.59;5059545;28;20031;-68
2023/03/30 09:20:59;;;;;;;8.65;2.50;;;;;;;14.55;91.16;100513.06;5077560;28;20464;-68
2023/03/30 09:23:28;;;;;;;11.52;2.47;;;;;;;14.32;90.30;100513.66;5104665;28;20028;-68
2023/03/30 09:26:03;;;;;;;9.60;2.45;;;;;;;13.98;89.84;100518.44;5085935;28;20025;-68
2023/03/30 09:28:37;;;;;;;9.55;2.30;;;;;;;13.84;91.69;100511.34;5072603;28;20045;-68
2023/03/30 09:31:07;;;;;;;10.15;2.78;;;;;;;13.72;93.84;100522.47;5081141;28;20035;-68
2023/03/30 09:33:54;;;;;;;9.70;2.83;;;;;;;13.50;92.03;100523.84;5085382;28;20046;-68
2023/03/30 09:36:49;;;;;;;14.57;2.60;;;;;;;13.41;93.18;100519.38;5078733;28;20023;-68
2023/03/30 09:39:17;;;;;;;12.30;3.05;;;;;;;13.64;97.52;100526.69;5078381;28;20017;-68
2023/03/30 09:41:55;;;;;;;13.05;3.00;;;;;;;13.97;93.15;100525.41;5077252;28;20040;-68
2023/03/30 09:44:45;;;;;;;9.13;3.03;;;;;;;14.33;93.05;100528.44;5081623;28;20960;-68
2023/03/30 09:47:34;;;;;;;9.52;2.33;;;;;;;14.64;94.38;100526.16;5081359;28;20251;-68
2023/03/30 09:50:14;;;;;;;8.80;2.78;;;;;;;14.85;88.99;100534.22;5063847;28;20045;-68
2023/03/30 09:52:40;;;;;;;10.23;2.83;;;;;;;14.87;84.67;100548.16;5083610;28;20836;-68
2023/03/30 09:55:19;;;;;;;10.75;3.00;;;;;;;14.79;85.02;100539.34;5085123;28;20106;-68
2023/03/30 09:57:44;;;;;;;9.90;2.72;;;;;;;14.67;85.33;100540.09;5081768;28;20055;-68
2023/03/30 10:00:22;;;;;;;11.90;2.80;;;;;;;14.62;87.36;100540.94;5076436;28;20024;-68
2023/03/30 10:02:59;;;;;;;11.95;3.03;;;;;;;14.64;87.16;100548.78;5077622;28;20450;-68
2023/03/30 10:05:26;;;;;;;10.68;2.58;;;;;;;14.53;87.87;100546.91;5070415;28;20302;-68
2023/03/30 10:08:19;;;;;;;7.88;2.92;;;;;;;14.41;88.13;100545.03;5076383;28;20032;-68
2023/03/30 10:10:44;;;;;;;11.93;3.45;;;;;;;14.38;88.16;100549.34;5087901;28;20024;-68
2023/03/30 10:13:14;;;;;;;12.70;3.60;;;;;;;14.33;90.77;100545.81;5079552;28;20142;-68
2023/03/30 10:15:45;;;;;;;12.65;3.80;;;;;;;14.24;89.19;100551.78;5086533;28;20107;-67
2023/03/30 10:18:38;;;;;;;12.35;3.55;;;;;;;14.07;88.14;100549.84;5074617;28;20461;-68
2023/03/30 10:21:18;;;;;;;12.95;3.00;;;;;;;14.00;88.80;100553.22;5089947;28;20032;-68
2023/03/30 10:23:46;;;;;;;12.88;2.90;;;;;;;13.97;90.19;100550.56;5080791;28;20051;-68
2023/03/30 10:26:14;;;;;;;14.73;3.30;;;;;;;14.04;91.38;100560.22;5070790;28;20020;-67
2023/03/30 10:28:54;;;;;;;11.10;2.72;;;;;;;14.17;92.58;100567.34;5077636;28;20110;-68
2023/03/30 10:31:21;;;;;;;12.70;3.10;;;;;;;14.30;90.02;100557.09;5083731;28;20453;-68
2023/03/30 10:33:47;;;;;;;15.48;3.55;;;;;;;14.51;90.05;100558.19;5082857;28;20406;-68
2023/03/30 10:36:14;;;;;;;11.00;3.20;;;;;;;14.62;90.84;100550.47;5080907;28;20058;-68
2023/03/30 10:38:41;;;;;;;11.15;3.17;;;;;;;14.63;89.36;100560.94;5080098;28;20028;-68
2023/03/30 10:41:25;;;;;;;10.80;3.55;;;;;;;14.59;88.04;100564.34;5074122;28;20024;-68
2023/03/30 10:43:51;;;;;;;12.52;3.20;;;;;;;14.41;85.75;100552.84;5077354;28;20395;-68
2023/03/30 10:46:21;;;;;;;13.48;3.28;;;;;;;14.36;87.59;100557.16;5084983;28;20087;-69
2023/03/30 10:49:28;;;;;;;12.65;3.45;;;;;;;14.45;84.54;100553.78;5067851;28;20036;-68
2023/03/30 10:52:23;;;;;;;13.07;2.97;;;;;;;14.58;84.47;100552.19;5033926;28;20044;-68
2023/03/30 10:55:09;;;;;;;12.90;2.95;;;;;;;14.65;82.37;100548.78;5069914;28;20131;-68
2023/03/30 10:58:06;;;;;;;12.95;3.05;;;;;;;14.80;84.53;100557.63;5080257;28;20027;-69
2023/03/30 11:01:10;;;;;;;14.98;3.63;;;;;;;15.09;82.08;100553.56;5065851;28;20044;-68
2023/03/30 11:03:38;;;;;;;7.68;2.70;;;;;;;15.16;80.62;100555.38;5079519;28;20022;-69
2023/03/30 11:06:40;;;;;;;12.25;3.03;;;;;;;15.20;81.63;100557.13;5069726;28;20024;-68
2023/03/30 11:09:13;;;;;;;11.63;3.05;;;;;;;15.34;84.90;100561.59;5042450;28;20364;-68
2023/03/30 11:11:46;;;;;;;9.82;3.33;;;;;;;15.32;80.77;100548.53;5072648;28;20037;-68
2023/03/30 11:14:19;;;;;;;11.88;3.03;;;;;;;15.08;79.41;100565.72;5086337;28;20024;-69
2023/03/30 11:17:00;;;;;;;12.05;3.17;;;;;;;14.96;81.38;100553.47;5087970;28;20024;-69
2023/03/30 11:19:41;;;;;;;9.90;2.65;;;;;;;15.04;83.98;100550.91;5082420;28;20026;-68
2023/03/30 11:22:37;;;;;;;11.93;2.58;;;;;;;15.27;82.50;100552.84;5086915;28;20032;-68
2023/03/30 11:25:15;;;;;;;11.48;2.55;;;;;;;15.57;81.93;100553.94;5083812;28;20298;-69
2023/03/30 11:27:51;;;;;;;12.55;3.58;;;;;;;15.72;84.02;100545.31;5082364;28;20039;-69
2023/03/30 11:30:28;;;;;;;9.32;2.88;;;;;;;15.68;79.95;100553.13;5087656;28;20039;-66
2023/03/30 11:33:01;;;;;;;11.02;3.22;;;;;;;15.48;80.67;100552.13;5078204;28;20025;-69
2023/03/30 11:35:42;;;;;;;13.15;3.35;;;;;;;15.30;80.45;100557.22;5076201;28;20068;-66
2023/03/30 11:38:26;;;;;;;9.00;2.70;;;;;;;15.07;80.37;100550.94;5072552;28;20040;-67